Time;durP1;ratioP1;P1;durP2;ratioP2;P2;SDS_P1;SDS_P2;PMS_P1;PMS_P2;Temp;Humidity;BMP_temperature;BMP_pressure;BME280_temperature;BME280_humidity;BME280_pressure;Samples;Min_cycle;Max_cycle;Signal;HPM_P1;HPM_P2
2023/06/12 00:00:05;;;;;;;10.37;5.60;;;22.40;1.00;;;;;;5048542;28;20178;-81
2023/06/12 00:02:31;;;;;;;6.60;5.40;;;22.30;1.00;;;;;;5047157;28;20850;-81
2023/06/12 00:04:57;;;;;;;8.40;5.73;;;22.30;1.00;;;;;;5038676;28;20823;-81
2023/06/12 00:07:25;;;;;;;7.33;5.97;;;22.20;1.00;;;;;;5036800;28;20445;-81
2023/06/12 00:09:51;;;;;;;6.00;5.40;;;22.20;1.20;;;;;;5042466;28;20440;-81
2023/06/12 00:12:17;;;;;;;8.30;5.93;;;22.10;1.40;;;;;;5049707;28;20472;-81
2023/06/12 00:14:42;;;;;;;7.37;6.67;;;22.10;1.40;;;;;;5048449;28;20810;-81
2023/06/12 00:17:08;;;;;;;7.93;6.40;;;22.10;2.20;;;;;;5043756;28;20179;-81
2023/06/12 00:19:33;;;;;;;11.27;6.00;;;22.00;2.40;;;;;;5039710;28;20201;-80
2023/06/12 00:21:59;;;;;;;13.03;6.10;;;22.00;3.10;;;;;;5041740;28;20240;-81
2023/06/12 00:24:24;;;;;;;7.07;5.93;;;21.90;3.20;;;;;;5048093;28;20210;-81
2023/06/12 00:26:50;;;;;;;7.70;5.60;;;21.90;3.50;;;;;;5042850;28;20209;-82
2023/06/12 00:29:16;;;;;;;10.70;6.20;;;21.90;3.00;;;;;;5044928;28;20229;-81
2023/06/12 00:31:42;;;;;;;8.10;6.20;;;21.90;3.50;;;;;;5049179;28;20344;-81
2023/06/12 00:34:07;;;;;;;6.90;6.00;;;21.80;3.70;;;;;;5039934;28;20434;-80
2023/06/12 00:36:34;;;;;;;10.40;5.90;;;21.80;3.10;;;;;;5049302;28;20186;-82
2023/06/12 00:39:00;;;;;;;7.10;6.10;;;21.70;4.10;;;;;;5049222;28;20200;-81
2023/06/12 00:41:25;;;;;;;9.23;5.70;;;21.70;4.10;;;;;;5049919;28;20494;-81
2023/06/12 00:43:51;;;;;;;12.13;5.80;;;21.60;4.30;;;;;;5042236;28;20213;-82
2023/06/12 00:46:18;;;;;;;10.93;5.97;;;21.50;5.20;;;;;;5042194;28;20180;-81
2023/06/12 00:48:43;;;;;;;8.57;6.33;;;21.50;5.70;;;;;;5040202;28;20276;-80
2023/06/12 00:51:10;;;;;;;11.43;6.80;;;21.40;5.60;;;;;;5046091;28;20498;-81
2023/06/12 00:53:35;;;;;;;8.77;6.17;;;21.40;5.90;;;;;;5049173;28;20170;-81
2023/06/12 00:56:01;;;;;;;10.60;6.10;;;21.40;6.50;;;;;;5045330;28;20470;-82
2023/06/12 00:58:27;;;;;;;10.93;6.47;;;21.30;6.40;;;;;;5041819;28;20590;-81
2023/06/12 01:00:54;;;;;;;10.70;6.30;;;21.20;6.10;;;;;;5042463;28;20190;-81
2023/06/12 01:03:21;;;;;;;12.57;6.87;;;21.10;6.10;;;;;;5054841;28;20443;-82
2023/06/12 01:05:47;;;;;;;9.30;6.30;;;21.10;6.50;;;;;;5051457;28;20448;-81
2023/06/12 01:08:49;;;;;;;14.40;7.20;;;21.10;7.20;;;;;;5047744;28;20511;-81
2023/06/12 01:11:17;;;;;;;16.33;6.47;;;21.10;7.90;;;;;;5046194;28;20457;-81
2023/06/12 01:13:43;;;;;;;15.20;7.73;;;21.00;7.40;;;;;;5039955;28;20437;-82
2023/06/12 01:16:08;;;;;;;13.43;5.80;;;21.00;7.10;;;;;;5049420;28;20444;-82
2023/06/12 01:18:34;;;;;;;10.43;5.90;;;20.90;7.10;;;;;;5049399;28;20239;-82
2023/06/12 01:21:07;;;;;;;8.47;6.80;;;20.90;7.70;;;;;;5045683;28;20190;-81
2023/06/12 01:23:39;;;;;;;12.73;7.00;;;20.80;7.70;;;;;;5041726;28;20745;-81
2023/06/12 01:26:29;;;;;;;11.50;6.70;;;20.80;8.40;;;;;;5039643;28;20438;-81
2023/06/12 01:29:23;;;;;;;8.90;6.03;;;20.80;8.50;;;;;;5050800;28;20470;-82
2023/06/12 01:32:02;;;;;;;15.03;6.50;;;20.70;8.80;;;;;;5034150;28;20479;-82
2023/06/12 01:34:37;;;;;;;10.50;6.40;;;20.70;9.50;;;;;;5044883;28;20441;-83
2023/06/12 01:37:14;;;;;;;14.07;6.20;;;20.60;8.90;;;;;;5043944;28;20855;-81
2023/06/12 01:39:41;;;;;;;13.30;7.40;;;20.60;9.10;;;;;;5039916;28;20433;-81
2023/06/12 01:42:07;;;;;;;13.63;6.30;;;20.50;9.60;;;;;;5044948;28;20447;-81
2023/06/12 01:44:33;;;;;;;10.07;6.60;;;20.50;9.80;;;;;;5050528;28;20429;-81
2023/06/12 01:46:59;;;;;;;12.90;6.93;;;20.40;9.70;;;;;;5038889;28;20436;-81
2023/06/12 01:49:25;;;;;;;9.03;6.30;;;20.40;10.30;;;;;;5038145;28;20478;-81
2023/06/12 01:51:50;;;;;;;18.00;6.63;;;20.30;10.80;;;;;;5037968;28;20231;-81
2023/06/12 01:54:17;;;;;;;13.03;6.80;;;20.30;11.60;;;;;;5037017;28;20311;-80
2023/06/12 01:56:42;;;;;;;14.00;7.63;;;20.30;11.30;;;;;;5051698;28;20182;-82
2023/06/12 01:59:08;;;;;;;17.20;7.27;;;20.20;12.30;;;;;;5049368;28;20548;-81
2023/06/12 02:01:34;;;;;;;8.30;6.73;;;20.20;13.00;;;;;;5047336;28;20244;-81
2023/06/12 02:04:00;;;;;;;12.80;7.20;;;20.20;13.20;;;;;;5038697;28;20253;-81
2023/06/12 02:06:25;;;;;;;13.40;6.50;;;20.10;13.60;;;;;;5036166;28;20200;-82
2023/06/12 02:08:52;;;;;;;8.87;7.00;;;20.10;14.10;;;;;;5041637;28;20494;-82
2023/06/12 02:11:17;;;;;;;12.37;8.13;;;20.10;24.10;;;;;;5045930;28;20204;-81
2023/06/12 02:13:43;;;;;;;10.07;7.00;;;20.10;15.10;;;;;;5040766;28;20428;-81
2023/06/12 02:16:08;;;;;;;9.00;6.60;;;20.00;15.30;;;;;;5039174;28;20190;-80
2023/06/12 02:18:34;;;;;;;7.93;6.57;;;20.00;16.50;;;;;;5034310;28;20216;-82
2023/06/12 02:20:59;;;;;;;9.23;7.13;;;20.00;16.80;;;;;;5048576;28;20213;-82
2023/06/12 02:23:25;;;;;;;8.60;7.30;;;19.90;16.60;;;;;;5038638;28;20190;-81
2023/06/12 02:25:50;;;;;;;9.13;7.37;;;19.90;17.20;;;;;;5042671;28;20214;-81
2023/06/12 02:28:16;;;;;;;11.27;7.87;;;19.90;17.60;;;;;;5044388;28;20216;-82
2023/06/12 02:30:41;;;;;;;11.20;8.27;;;19.80;17.60;;;;;;5042274;28;20220;-82
2023/06/12 02:33:09;;;;;;;9.10;7.30;;;19.80;18.80;;;;;;5057534;28;20188;-81
2023/06/12 02:35:38;;;;;;;10.70;9.00;;;19.80;18.60;;;;;;5049135;28;20189;-82
2023/06/12 02:38:04;;;;;;;11.80;8.33;;;19.80;18.80;;;;;;5045954;28;20470;-82
2023/06/12 02:40:29;;;;;;;10.10;7.60;;;19.70;19.50;;;;;;5042668;28;20449;-81
2023/06/12 02:42:55;;;;;;;8.53;7.73;;;19.60;19.70;;;;;;5036964;28;20190;-82
2023/06/12 02:45:21;;;;;;;11.77;8.80;;;19.50;19.70;;;;;;5046043;28;20187;-82
2023/06/12 02:47:47;;;;;;;10.10;7.43;;;19.40;19.70;;;;;;5048638;28;20221;-81
2023/06/12 02:50:13;;;;;;;14.37;7.60;;;19.40;19.80;;;;;;5052484;28;20442;-81
2023/06/12 02:52:40;;;;;;;9.87;7.67;;;19.30;20.70;;;;;;5045848;28;20210;-81
2023/06/12 02:55:06;;;;;;;7.40;6.40;;;19.30;22.20;;;;;;5041655;28;20196;-81
2023/06/12 02:57:32;;;;;;;10.00;7.40;;;19.30;21.70;;;;;;5042068;28;20466;-81
2023/06/12 02:59:58;;;;;;;9.43;7.60;;;19.30;21.80;;;;;;5045930;28;20441;-81
2023/06/12 03:02:23;;;;;;;8.50;7.70;;;19.20;21.80;;;;;;5038037;28;20666;-81
2023/06/12 03:04:49;;;;;;;7.93;6.80;;;19.20;21.90;;;;;;5044802;28;20194;-81
2023/06/12 03:07:16;;;;;;;14.17;6.90;;;19.10;21.60;;;;;;5041712;28;20188;-81
2023/06/12 03:09:45;;;;;;;7.83;6.80;;;19.00;22.70;;;;;;5038500;28;20179;-81
2023/06/12 03:12:11;;;;;;;10.27;7.17;;;19.00;21.90;;;;;;5052721;28;21100;-81
2023/06/12 03:14:38;;;;;;;9.83;6.77;;;19.00;22.80;;;;;;5050248;28;20433;-81
2023/06/12 03:17:04;;;;;;;6.90;6.23;;;19.00;22.50;;;;;;5046096;28;20524;-81
2023/06/12 03:19:30;;;;;;;7.53;6.37;;;18.90;22.50;;;;;;5038548;28;20456;-81
2023/06/12 03:21:56;;;;;;;10.70;7.10;;;18.90;23.20;;;;;;5040841;28;20478;-82
2023/06/12 03:24:22;;;;;;;8.13;6.73;;;18.90;24.10;;;;;;5037864;28;20821;-81
2023/06/12 03:26:47;;;;;;;14.40;7.60;;;18.90;24.40;;;;;;5038952;28;20235;-82
2023/06/12 03:29:13;;;;;;;9.10;6.80;;;19.00;24.50;;;;;;5044472;28;20208;-81
2023/06/12 03:31:39;;;;;;;8.03;7.23;;;19.00;24.10;;;;;;5042734;28;20535;-81
2023/06/12 03:34:05;;;;;;;7.07;6.37;;;19.00;24.80;;;;;;5040870;28;20188;-81
2023/06/12 03:36:33;;;;;;;9.20;7.67;;;19.00;24.60;;;;;;5034614;28;20249;-81
2023/06/12 03:39:02;;;;;;;7.80;6.70;;;19.10;24.80;;;;;;5044720;28;20500;-81
2023/06/12 03:41:31;;;;;;;7.83;6.43;;;19.10;24.90;;;;;;5050464;28;20532;-81
2023/06/12 03:43:56;;;;;;;7.07;6.17;;;19.10;25.20;;;;;;5041585;28;20436;-82
2023/06/12 03:46:22;;;;;;;8.27;6.10;;;19.10;25.90;;;;;;5041490;28;20460;-81
2023/06/12 03:48:47;;;;;;;7.93;6.83;;;19.20;25.70;;;;;;5038596;28;20231;-81
2023/06/12 03:51:13;;;;;;;10.60;5.87;;;19.20;25.80;;;;;;5040062;28;20208;-80
2023/06/12 03:53:39;;;;;;;8.40;7.17;;;19.30;26.10;;;;;;5046182;28;20192;-81
2023/06/12 03:56:05;;;;;;;7.50;6.67;;;19.30;26.70;;;;;;5048463;28;20261;-81
2023/06/12 03:58:31;;;;;;;9.10;7.27;;;19.30;26.80;;;;;;5044049;28;20819;-81
2023/06/12 04:00:56;;;;;;;11.50;7.30;;;19.30;27.90;;;;;;5043061;28;20854;-81
2023/06/12 04:03:24;;;;;;;8.70;7.80;;;19.30;27.70;;;;;;5048746;28;20217;-82
2023/06/12 04:05:50;;;;;;;12.43;7.20;;;19.30;28.10;;;;;;5046193;28;20186;-81
2023/06/12 04:08:16;;;;;;;9.00;6.80;;;19.30;28.40;;;;;;5045214;28;20461;-81
2023/06/12 04:10:43;;;;;;;7.90;7.10;;;19.30;28.60;;;;;;5042334;28;20473;-81
2023/06/12 04:13:08;;;;;;;8.47;7.53;;;19.30;28.70;;;;;;5046822;28;20440;-81
2023/06/12 04:15:36;;;;;;;8.20;6.60;;;19.40;28.60;;;;;;5050806;28;20522;-82
2023/06/12 04:18:02;;;;;;;8.13;6.70;;;19.40;28.80;;;;;;5054200;28;20197;-81
2023/06/12 04:20:29;;;;;;;12.20;7.10;;;19.50;29.50;;;;;;5047356;28;20444;-81
2023/06/12 04:22:56;;;;;;;13.70;7.20;;;19.50;30.00;;;;;;5046266;28;20908;-81
2023/06/12 04:25:27;;;;;;;8.87;7.77;;;19.50;30.30;;;;;;5036706;28;20448;-80
2023/06/12 04:27:53;;;;;;;8.97;7.30;;;19.60;30.60;;;;;;5036315;28;20473;-80
2023/06/12 04:30:21;;;;;;;11.13;7.10;;;19.60;30.40;;;;;;5053397;28;20436;-79
2023/06/12 04:32:47;;;;;;;8.50;6.50;;;19.60;30.60;;;;;;5047336;28;20679;-80
2023/06/12 04:35:12;;;;;;;8.40;7.50;;;19.60;30.30;;;;;;5039849;28;20432;-80
2023/06/12 04:37:38;;;;;;;9.00;7.10;;;19.70;31.00;;;;;;5042230;28;20456;-80
2023/06/12 04:40:04;;;;;;;11.30;7.00;;;19.70;31.60;;;;;;5054317;28;20733;-80
2023/06/12 04:42:31;;;;;;;8.93;7.07;;;19.80;31.90;;;;;;5046062;28;20448;-80
2023/06/12 04:44:58;;;;;;;8.00;6.50;;;19.90;33.30;;;;;;5037132;28;20495;-81
2023/06/12 04:47:24;;;;;;;14.23;7.37;;;20.00;34.20;;;;;;5040743;28;20504;-82
2023/06/12 04:49:57;;;;;;;8.30;6.70;;;20.00;35.40;;;;;;5051147;28;20461;-80
2023/06/12 04:52:26;;;;;;;8.77;7.60;;;20.10;36.10;;;;;;5053943;28;20460;-82
2023/06/12 04:54:52;;;;;;;9.53;7.60;;;20.20;36.30;;;;;;5047459;28;20433;-82
2023/06/12 04:57:18;;;;;;;9.10;7.30;;;20.30;37.30;;;;;;5039610;28;20440;-82
2023/06/12 04:59:44;;;;;;;9.73;7.40;;;20.30;37.60;;;;;;5043554;28;20458;-80
2023/06/12 05:02:11;;;;;;;10.17;6.53;;;20.40;37.70;;;;;;5045049;28;20438;-81
2023/06/12 05:04:37;;;;;;;8.63;7.20;;;20.50;37.70;;;;;;5034202;28;20485;-81
2023/06/12 05:07:16;;;;;;;9.57;7.03;;;20.60;49.90;;;;;;5045718;28;20442;-80
2023/06/12 05:09:45;;;;;;;16.50;7.07;;;20.60;37.80;;;;;;5040467;28;20428;-81
2023/06/12 05:12:11;;;;;;;9.90;7.70;;;20.60;37.30;;;;;;5054033;28;20837;-81
2023/06/12 05:14:41;;;;;;;13.30;7.17;;;20.60;37.20;;;;;;5049327;28;20434;-81
2023/06/12 05:17:07;;;;;;;15.40;8.33;;;20.70;37.00;;;;;;5048329;28;20181;-81
2023/06/12 05:19:33;;;;;;;9.90;7.00;;;20.80;38.00;;;;;;5038822;28;20481;-81
2023/06/12 05:21:58;;;;;;;12.40;7.50;;;20.80;39.10;;;;;;5045660;28;20188;-81
2023/06/12 05:24:24;;;;;;;14.10;7.83;;;20.90;39.80;;;;;;5047089;28;20189;-81
2023/06/12 05:26:50;;;;;;;9.83;6.37;;;21.00;40.50;;;;;;5040046;28;20188;-81
2023/06/12 05:29:16;;;;;;;13.73;7.27;;;21.00;39.20;;;;;;5039799;28;20291;-81
2023/06/12 05:31:41;;;;;;;13.53;7.70;;;21.10;39.70;;;;;;5040429;28;20483;-81
2023/06/12 05:34:07;;;;;;;18.37;7.47;;;21.10;40.60;;;;;;5037842;28;20419;-81
2023/06/12 05:36:33;;;;;;;11.07;7.87;;;21.20;41.50;;;;;;5039453;28;20193;-81
2023/06/12 05:38:58;;;;;;;11.53;7.63;;;21.40;41.80;;;;;;5040734;28;20196;-81
2023/06/12 05:41:25;;;;;;;11.40;7.03;;;21.50;42.30;;;;;;5040730;28;20280;-81
2023/06/12 05:43:50;;;;;;;16.40;7.77;;;21.60;41.60;;;;;;5039213;28;20272;-81
2023/06/12 05:46:16;;;;;;;20.73;7.80;;;21.60;41.40;;;;;;5040065;28;20462;-81
2023/06/12 05:48:41;;;;;;;13.80;7.83;;;21.70;41.00;;;;;;5039283;28;20228;-81
2023/06/12 05:51:07;;;;;;;16.40;7.20;;;21.80;42.00;;;;;;5033547;28;20220;-81
2023/06/12 05:53:33;;;;;;;12.33;7.40;;;21.90;42.10;;;;;;5040570;28;20221;-81
2023/06/12 05:55:59;;;;;;;19.30;8.57;;;22.00;41.50;;;;;;5039951;28;20178;-81
2023/06/12 05:58:26;;;;;;;14.93;7.87;;;22.10;42.00;;;;;;5039366;28;20544;-80
2023/06/12 06:00:52;;;;;;;19.83;6.77;;;22.30;42.90;;;;;;5040183;28;20849;-81
2023/06/12 06:03:19;;;;;;;18.63;8.20;;;22.50;42.40;;;;;;5037246;28;20442;-82
2023/06/12 06:05:49;;;;;;;16.73;8.37;;;22.70;42.50;;;;;;5034661;28;20427;-84
2023/06/12 06:08:14;;;;;;;20.90;7.80;;;23.10;43.40;;;;;;5044965;28;20482;-83
2023/06/12 06:10:40;;;;;;;14.37;7.43;;;23.60;45.70;;;;;;5038623;28;20814;-84
2023/06/12 06:13:06;;;;;;;19.70;7.47;;;24.50;48.50;;;;;;5040599;28;20608;-84
2023/06/12 06:15:32;;;;;;;15.73;7.27;;;26.60;53.50;;;;;;5037999;28;20516;-83
2023/06/12 06:17:57;;;;;;;17.87;6.40;;;30.10;59.00;;;;;;5039343;28;20904;-84
2023/06/12 06:20:23;;;;;;;23.53;7.00;;;33.40;61.80;;;;;;5046616;28;20647;-85
2023/06/12 06:22:50;;;;;;;14.63;6.27;;;36.10;58.30;;;;;;5038731;28;20265;-84
2023/06/12 06:25:17;;;;;;;14.43;6.03;;;38.70;52.70;;;;;;5042100;28;20190;-84
2023/06/12 06:27:42;;;;;;;11.63;6.37;;;40.60;42.30;;;;;;5036993;28;20953;-84
2023/06/12 06:30:08;;;;;;;11.60;6.47;;;41.80;32.80;;;;;;5039075;28;20432;-85
2023/06/12 06:32:33;;;;;;;16.80;5.90;;;42.70;26.30;;;;;;5042861;28;20213;-85
2023/06/12 06:34:59;;;;;;;6.30;5.50;;;43.90;22.20;;;;;;5035669;28;20189;-85
2023/06/12 06:37:25;;;;;;;10.20;5.27;;;45.10;16.60;;;;;;5034152;28;20213;-85
2023/06/12 06:39:50;;;;;;;11.73;5.90;;;46.00;12.50;;;;;;5029532;28;20611;-85
2023/06/12 06:42:16;;;;;;;8.43;4.87;;;46.70;7.70;;;;;;5036234;28;20730;-85
2023/06/12 06:44:41;;;;;;;14.47;5.60;;;47.40;3.60;;;;;;5039415;28;20248;-84
2023/06/12 06:47:11;;;;;;;16.13;5.63;;;47.10;1.00;;;;;;5035425;28;20186;-85
2023/06/12 06:49:37;;;;;;;11.83;5.70;;;47.00;1.00;;;;;;5041026;28;20239;-86
2023/06/12 06:52:03;;;;;;;10.87;5.50;;;46.90;1.00;;;;;;5057627;28;20430;-85
2023/06/12 06:54:29;;;;;;;14.33;6.40;;;46.70;1.00;;;;;;5030973;28;20431;-85
2023/06/12 06:56:54;;;;;;;12.20;6.33;;;46.30;1.00;;;;;;5032422;28;20924;-85
2023/06/12 06:59:20;;;;;;;14.37;5.70;;;46.20;1.00;;;;;;5032839;28;20201;-85
2023/06/12 07:01:45;;;;;;;16.00;5.77;;;46.20;1.00;;;;;;5030932;28;20292;-85
2023/06/12 07:04:11;;;;;;;10.37;5.90;;;46.30;1.00;;;;;;5032452;28;20212;-85
2023/06/12 07:06:37;;;;;;;8.03;5.53;;;46.90;1.00;;;;;;5032221;28;20663;-85
2023/06/12 07:09:02;;;;;;;20.67;5.40;;;48.00;1.00;;;;;;5036990;28;20202;-86
2023/06/12 07:11:28;;;;;;;5.50;4.67;;;48.30;1.00;;;;;;5041397;28;20630;-84
2023/06/12 07:13:54;;;;;;;14.57;6.37;;;48.90;1.00;;;;;;5036534;28;20188;-85
2023/06/12 07:16:20;;;;;;;18.20;5.40;;;49.40;1.00;;;;;;5031510;28;20180;-85
2023/06/12 07:18:45;;;;;;;9.47;5.50;;;49.30;1.00;;;;;;5038040;28;20201;-85
2023/06/12 07:21:11;;;;;;;9.83;4.80;;;48.80;1.00;;;;;;5041879;28;20284;-85
2023/06/12 07:23:36;;;;;;;13.33;5.50;;;48.30;1.00;;;;;;5023055;28;20181;-83
2023/06/12 07:26:02;;;;;;;12.27;5.13;;;48.30;1.00;;;;;;5028330;28;20185;-85
2023/06/12 07:28:28;;;;;;;11.00;5.10;;;48.50;1.00;;;;;;5026158;28;20206;-84
2023/06/12 07:30:54;;;;;;;13.90;4.67;;;48.90;1.00;;;;;;5029770;28;20197;-85
2023/06/12 07:33:19;;;;;;;13.03;5.77;;;49.00;1.00;;;;;;5034136;28;20557;-85
2023/06/12 07:35:45;;;;;;;7.80;4.63;;;48.90;1.00;;;;;;5029177;28;20789;-85
2023/06/12 07:38:12;;;;;;;9.30;5.00;;;48.50;1.00;;;;;;5027739;28;20312;-83
2023/06/12 07:40:38;;;;;;;8.47;5.53;;;48.80;1.00;;;;;;5027759;28;20212;-83
2023/06/12 07:43:03;;;;;;;11.50;4.70;;;49.20;1.00;;;;;;5031415;28;20432;-83
2023/06/12 07:45:29;;;;;;;14.30;5.20;;;49.90;1.00;;;;;;5027861;28;20188;-82
2023/06/12 07:47:57;;;;;;;17.20;6.53;;;50.40;1.00;;;;;;5037544;28;20297;-83
2023/06/12 07:50:23;;;;;;;8.63;5.57;;;50.30;1.00;;;;;;5038809;28;20530;-83
2023/06/12 07:52:49;;;;;;;11.40;5.47;;;49.90;1.00;;;;;;5036696;28;20824;-82
2023/06/12 07:55:14;;;;;;;13.53;5.00;;;49.30;1.00;;;;;;5033288;28;20436;-83
2023/06/12 07:57:40;;;;;;;10.00;5.23;;;49.10;1.00;;;;;;5042683;28;20215;-84
2023/06/12 08:00:07;;;;;;;15.40;4.80;;;49.20;1.00;;;;;;5030896;28;20182;-84
2023/06/12 08:02:34;;;;;;;10.60;4.60;;;49.00;1.00;;;;;;5046834;28;20227;-84
2023/06/12 08:05:00;;;;;;;8.67;5.80;;;48.40;1.00;;;;;;5029061;28;20474;-84
2023/06/12 08:07:26;;;;;;;6.80;5.20;;;47.90;1.00;;;;;;5034417;28;20495;-84
2023/06/12 08:09:53;;;;;;;6.47;5.33;;;46.90;1.00;;;;;;5032146;28;20425;-84
2023/06/12 08:12:19;;;;;;;7.93;5.80;;;45.90;1.00;;;;;;5032256;28;20424;-84
2023/06/12 08:14:47;;;;;;;9.90;6.83;;;45.60;1.00;;;;;;5027191;28;20937;-84
2023/06/12 08:17:13;;;;;;;9.53;5.63;;;45.20;1.00;;;;;;5037388;28;20647;-84
2023/06/12 08:19:40;;;;;;;12.60;5.47;;;45.00;1.00;;;;;;5026143;28;20547;-84
2023/06/12 08:22:07;;;;;;;11.00;6.00;;;45.20;1.00;;;;;;5032494;28;20518;-83
2023/06/12 08:24:35;;;;;;;7.27;5.37;;;45.40;1.00;;;;;;5031661;28;20907;-84
2023/06/12 08:27:01;;;;;;;11.83;6.20;;;45.90;1.00;;;;;;5029282;28;20976;-84
2023/06/12 08:29:27;;;;;;;16.17;5.83;;;46.60;1.00;;;;;;5040739;28;20466;-84
2023/06/12 08:31:53;;;;;;;7.43;5.00;;;47.10;1.00;;;;;;5030893;28;20873;-84
2023/06/12 08:34:19;;;;;;;15.63;5.60;;;47.10;1.00;;;;;;5038062;28;20190;-84
2023/06/12 08:36:45;;;;;;;10.43;6.37;;;47.50;1.00;;;;;;5034780;28;20467;-84
2023/06/12 08:39:11;;;;;;;9.50;5.47;;;47.50;1.00;;;;;;5043460;28;20494;-84
2023/06/12 08:41:45;;;;;;;10.37;5.90;;;47.30;1.00;;;;;;5045097;28;20198;-84
2023/06/12 08:44:11;;;;;;;9.70;5.80;;;46.80;1.00;;;;;;5047096;28;20188;-85
2023/06/12 08:46:37;;;;;;;10.93;5.13;;;46.40;1.00;;;;;;5037017;28;20880;-85
2023/06/12 08:49:04;;;;;;;10.80;5.50;;;46.00;1.00;;;;;;5037422;28;20988;-84
2023/06/12 08:51:32;;;;;;;8.57;5.10;;;46.90;1.00;;;;;;5032708;28;20931;-84
2023/06/12 08:54:00;;;;;;;9.33;5.40;;;47.10;1.00;;;;;;5036336;28;20518;-84
2023/06/12 08:56:27;;;;;;;8.80;5.73;;;46.80;1.00;;;;;;5050754;28;20513;-84
2023/06/12 08:58:53;;;;;;;7.07;5.30;;;46.30;1.00;;;;;;5038512;28;20502;-84
2023/06/12 09:01:20;;;;;;;8.43;5.10;;;46.60;1.00;;;;;;5039089;28;20837;-84
2023/06/12 09:03:52;;;;;;;6.70;5.07;;;46.70;1.00;;;;;;5041666;28;20488;-84
2023/06/12 09:06:18;;;;;;;11.50;4.93;;;47.50;1.00;;;;;;5043570;28;20943;-84
2023/06/12 09:08:45;;;;;;;12.40;5.67;;;48.20;1.00;;;;;;5038104;28;20473;-84
2023/06/12 09:11:10;;;;;;;5.97;5.43;;;48.60;1.00;;;;;;5038952;28;20432;-85
2023/06/12 09:13:41;;;;;;;15.63;5.97;;;48.50;1.00;;;;;;5035051;28;20444;-85
2023/06/12 09:16:11;;;;;;;9.33;5.47;;;48.30;1.00;;;;;;5035349;28;20582;-84
2023/06/12 09:18:50;;;;;;;7.43;4.83;;;48.40;1.00;;;;;;5039473;28;20542;-83
2023/06/12 09:21:16;;;;;;;11.53;5.77;;;48.60;1.00;;;;;;5053033;28;20470;-83
2023/06/12 09:23:45;;;;;;;8.00;5.50;;;48.60;1.00;;;;;;5050286;28;20436;-83
2023/06/12 09:26:15;;;;;;;10.80;4.70;;;48.70;1.00;;;;;;5045012;28;20177;-83
2023/06/12 09:28:44;;;;;;;11.07;5.17;;;48.30;1.00;;;;;;5055908;28;20463;-84
2023/06/12 09:31:11;;;;;;;6.77;4.87;;;47.70;1.00;;;;;;5053398;28;20456;-83
2023/06/12 09:33:40;;;;;;;5.40;4.70;;;47.10;1.00;;;;;;5040938;28;20444;-83
2023/06/12 09:36:07;;;;;;;5.07;4.57;;;46.70;1.00;;;;;;5041301;28;20449;-83
2023/06/12 09:38:34;;;;;;;5.23;4.73;;;47.00;1.00;;;;;;5041121;28;20579;-83
2023/06/12 09:41:04;;;;;;;6.83;4.87;;;47.70;1.00;;;;;;5056862;28;21004;-84
2023/06/12 09:43:31;;;;;;;10.23;5.10;;;47.60;1.00;;;;;;5052463;28;20440;-84
2023/06/12 09:45:57;;;;;;;5.67;5.00;;;47.70;1.00;;;;;;5042523;28;20535;-83
2023/06/12 09:48:23;;;;;;;8.47;4.97;;;47.60;1.00;;;;;;5041245;28;21315;-83
2023/06/12 09:50:48;;;;;;;9.30;4.83;;;47.30;1.00;;;;;;5048887;28;20464;-83
2023/06/12 09:53:20;;;;;;;10.00;4.97;;;46.90;1.00;;;;;;5044841;28;20186;-83
2023/06/12 09:55:47;;;;;;;6.20;5.10;;;46.70;1.00;;;;;;5046115;28;20238;-84
2023/06/12 09:58:18;;;;;;;5.53;4.60;;;46.40;1.00;;;;;;5048278;28;20484;-84
2023/06/12 10:00:45;;;;;;;5.23;4.83;;;46.40;1.00;;;;;;5046612;28;20445;-84
2023/06/12 10:03:15;;;;;;;7.00;5.17;;;46.40;1.00;;;;;;5056896;28;20955;-84
2023/06/12 10:05:43;;;;;;;6.03;5.13;;;46.20;1.00;;;;;;5051825;28;20440;-83
2023/06/12 10:08:10;;;;;;;8.83;5.07;;;46.00;1.00;;;;;;5042764;28;20456;-83
2023/06/12 10:10:36;;;;;;;5.60;4.80;;;46.00;1.00;;;;;;5039802;28;20531;-83
2023/06/12 10:13:03;;;;;;;12.97;6.03;;;45.70;1.00;;;;;;5044482;28;20450;-83
2023/06/12 10:15:30;;;;;;;7.50;5.47;;;45.20;1.00;;;;;;5044731;28;20436;-84
2023/06/12 10:17:57;;;;;;;7.00;4.90;;;45.10;1.00;;;;;;5044355;28;20464;-84
2023/06/12 10:20:26;;;;;;;8.47;5.40;;;45.00;1.00;;;;;;5042052;28;20869;-83
2023/06/12 10:22:53;;;;;;;12.80;5.87;;;45.10;1.00;;;;;;5036366;28;20448;-82
2023/06/12 10:25:20;;;;;;;8.07;5.00;;;44.90;1.00;;;;;;5040590;28;20447;-83
2023/06/12 10:27:47;;;;;;;5.40;4.90;;;44.80;1.00;;;;;;5042456;28;20460;-84
2023/06/12 10:30:15;;;;;;;5.40;4.90;;;44.90;1.00;;;;;;5038100;28;20444;-84
2023/06/12 10:32:43;;;;;;;7.27;4.67;;;44.80;1.00;;;;;;5049722;28;20518;-83
2023/06/12 10:35:09;;;;;;;8.83;4.43;;;45.20;1.00;;;;;;5044418;28;20497;-83
2023/06/12 10:37:38;;;;;;;6.40;4.60;;;45.00;1.00;;;;;;5046645;28;20445;-83
2023/06/12 10:40:09;;;;;;;7.07;4.80;;;44.90;1.00;;;;;;5049076;28;20770;-82
2023/06/12 10:42:48;;;;;;;7.70;4.67;;;44.90;1.00;;;;;;5047674;28;20473;-84
2023/06/12 10:45:23;;;;;;;7.03;4.63;;;44.80;1.00;;;;;;5046213;28;20490;-84
2023/06/12 10:48:07;;;;;;;7.97;5.30;;;44.50;1.00;;;;;;5033482;28;20461;-83
2023/06/12 10:50:43;;;;;;;8.30;4.90;;;44.10;1.00;;;;;;5047421;28;20470;-83
2023/06/12 10:53:32;;;;;;;9.47;5.23;;;44.00;1.00;;;;;;5040061;28;20515;-82
2023/06/12 10:56:08;;;;;;;5.90;4.63;;;43.80;1.00;;;;;;5040066;28;20466;-83
2023/06/12 10:58:41;;;;;;;5.50;4.97;;;43.90;1.00;;;;;;5041903;28;21061;-83
2023/06/12 11:01:13;;;;;;;7.33;5.37;;;43.60;1.00;;;;;;5044299;28;20446;-85
2023/06/12 11:03:42;;;;;;;5.37;4.70;;;43.70;1.00;;;;;;5044907;28;20443;-83
2023/06/12 11:06:15;;;;;;;7.23;4.90;;;43.60;1.00;;;;;;5043125;28;20440;-84
2023/06/12 11:08:41;;;;;;;9.43;5.13;;;43.30;1.00;;;;;;5049814;28;20468;-84
2023/06/12 11:11:11;;;;;;;11.63;4.93;;;42.90;1.00;;;;;;5040800;28;20464;-84
2023/06/12 11:13:44;;;;;;;5.93;4.80;;;42.50;1.00;;;;;;5052293;28;20451;-84
2023/06/12 11:16:14;;;;;;;5.90;4.63;;;42.70;1.00;;;;;;5051175;28;20433;-83
2023/06/12 11:18:40;;;;;;;5.40;4.70;;;42.80;1.00;;;;;;5043727;28;20488;-83
2023/06/12 11:21:07;;;;;;;5.50;4.97;;;42.60;1.00;;;;;;5039364;28;20457;-84
2023/06/12 11:23:32;;;;;;;5.97;4.40;;;42.50;1.00;;;;;;5050315;28;20177;-82
2023/06/12 11:25:59;;;;;;;9.13;4.70;;;42.50;1.00;;;;;;5050019;28;20436;-83
2023/06/12 11:28:28;;;;;;;8.70;4.70;;;42.50;1.00;;;;;;5046660;28;20193;-84
2023/06/12 11:30:54;;;;;;;8.90;5.53;;;42.40;1.00;;;;;;5038391;28;20748;-83
2023/06/12 11:33:20;;;;;;;4.60;4.20;;;42.30;1.00;;;;;;5039077;28;20499;-84
2023/06/12 11:35:51;;;;;;;5.33;4.47;;;42.20;1.00;;;;;;5030187;28;20444;-83
2023/06/12 11:38:21;;;;;;;5.23;4.10;;;42.50;1.00;;;;;;5042247;28;20458;-83
2023/06/12 11:40:47;;;;;;;5.20;4.27;;;43.00;1.00;;;;;;5045030;28;20481;-84
2023/06/12 11:43:16;;;;;;;5.07;4.57;;;43.20;1.00;;;;;;5039041;28;20429;-83
2023/06/12 11:45:42;;;;;;;4.73;4.33;;;43.30;1.00;;;;;;5050830;28;20439;-83
2023/06/12 11:48:14;;;;;;;4.10;3.80;;;43.40;1.00;;;;;;5038638;28;20966;-83
2023/06/12 11:50:40;;;;;;;5.70;4.30;;;43.20;1.00;;;;;;5046173;28;20261;-83
2023/06/12 11:53:06;;;;;;;4.93;4.43;;;42.70;1.00;;;;;;5040160;28;20864;-84
2023/06/12 11:55:32;;;;;;;4.53;4.23;;;42.50;1.00;;;;;;5049676;28;20553;-83
2023/06/12 11:58:01;;;;;;;6.00;4.60;;;42.10;1.00;;;;;;5046158;28;20221;-83
2023/06/12 12:00:30;;;;;;;4.60;4.20;;;41.80;1.00;;;;;;5052597;28;20448;-84
2023/06/12 12:03:01;;;;;;;4.90;4.47;;;41.80;1.00;;;;;;5043963;28;20437;-84
2023/06/12 12:05:32;;;;;;;5.77;4.07;;;41.90;1.00;;;;;;5043126;28;20475;-84
2023/06/12 12:08:03;;;;;;;5.93;4.50;;;41.60;1.00;;;;;;5049399;28;20456;-84
2023/06/12 12:10:30;;;;;;;5.60;4.73;;;41.70;1.00;;;;;;5043533;28;20443;-83
2023/06/12 12:13:01;;;;;;;9.13;5.50;;;41.90;1.00;;;;;;5047238;28;20474;-84
2023/06/12 12:15:29;;;;;;;5.77;4.23;;;41.80;1.00;;;;;;5049475;28;20536;-83
2023/06/12 12:17:55;;;;;;;5.23;4.83;;;41.60;1.00;;;;;;5042514;28;21079;-84
2023/06/12 12:20:25;;;;;;;5.80;4.87;;;41.20;1.00;;;;;;5048505;28;20438;-84
2023/06/12 12:22:56;;;;;;;5.20;4.70;;;41.30;1.00;;;;;;5054510;28;20959;-83
2023/06/12 12:25:29;;;;;;;5.40;4.90;;;41.50;1.00;;;;;;5041854;28;20445;-83
2023/06/12 12:27:56;;;;;;;8.27;5.00;;;41.40;1.00;;;;;;5044874;28;20461;-83
2023/06/12 12:30:22;;;;;;;5.30;4.80;;;41.20;1.00;;;;;;5054679;28;20799;-84
2023/06/12 12:32:51;;;;;;;5.70;5.20;;;40.80;1.00;;;;;;5050741;28;20457;-83
2023/06/12 12:35:17;;;;;;;6.27;5.67;;;40.60;1.00;;;;;;5051529;28;20492;-83
2023/06/12 12:37:44;;;;;;;5.67;4.73;;;40.50;1.00;;;;;;5045276;28;20462;-83
2023/06/12 12:40:11;;;;;;;8.63;5.30;;;40.30;1.00;;;;;;5040508;28;20428;-84
2023/06/12 12:42:38;;;;;;;6.00;4.83;;;40.00;1.00;;;;;;5058991;28;20933;-84
2023/06/12 12:45:04;;;;;;;7.50;4.73;;;39.80;1.00;;;;;;5044160;28;20449;-83
2023/06/12 12:47:29;;;;;;;5.40;5.00;;;39.80;1.00;;;;;;5037922;28;20447;-83